Terminal Aerodrome Forecast
Issued by NWS

Home | Current Version | Previous Version | Graphics & Text | Print | Product List | Glossary On
Versions: 1 2 3 4 5 6 7 8 9 10 11 12 13 14 15 16 17 18 19 20 21 22 23 24 25
000
FTUS43 KTOP 231900 AAA
TAFMHK
TAF AMD
KMHK 231956Z 2320/2418 21009KT 1SM TSRA BR OVC013CB
     FM232100 12008KT 4SM RA VCTS BKN008CB
     FM240100 12009KT 4SM RA VCTS BKN008CB
     FM240600 13007KT P6SM SHRA BKN010 OVC030=

USA.gov is the U.S. government's official web portal to all federal, state and local government web resources and services.